createdAt,value
2022-08-20T00:01:36.023Z,17.42
2022-08-20T00:04:02.752Z,13.85
2022-08-20T00:06:29.503Z,18.17
2022-08-20T00:08:56.088Z,16.88
2022-08-20T00:11:25.802Z,18.00
2022-08-20T00:13:58.771Z,18.02
2022-08-20T00:16:28.232Z,15.02
2022-08-20T00:18:55.102Z,14.82
2022-08-20T00:21:23.213Z,17.80
2022-08-20T00:23:52.084Z,15.88
2022-08-20T00:26:20.280Z,14.75
2022-08-20T00:28:47.313Z,14.98
2022-08-20T00:31:19.378Z,15.93
2022-08-20T00:33:47.520Z,17.15
2022-08-20T00:36:17.553Z,19.13
2022-08-20T00:38:46.547Z,14.10
2022-08-20T00:41:18.301Z,14.73
2022-08-20T00:44:05.308Z,16.75
2022-08-20T00:46:32.585Z,14.35
2022-08-20T00:49:01.768Z,13.43
2022-08-20T00:51:41.444Z,15.52
2022-08-20T00:54:16.012Z,14.73
2022-08-20T00:56:45.369Z,12.00
2022-08-20T00:59:18.435Z,12.68
2022-08-20T01:01:55.151Z,14.18
2022-08-20T01:04:33.648Z,13.00
2022-08-20T01:07:01.218Z,14.60
2022-08-20T01:09:50.170Z,11.13
2022-08-20T01:12:16.269Z,12.55
2022-08-20T01:14:45.214Z,13.55
2022-08-20T01:17:17.625Z,12.13
2022-08-20T01:20:10.024Z,13.82
2022-08-20T01:23:01.237Z,12.40
2022-08-20T01:25:48.668Z,16.13
2022-08-20T01:28:19.555Z,15.25
2022-08-20T01:30:46.329Z,13.45
2022-08-20T01:33:13.566Z,11.98
2022-08-20T01:35:42.912Z,10.95
2022-08-20T01:38:09.639Z,11.75
2022-08-20T01:40:44.781Z,12.75
2022-08-20T01:43:12.271Z,13.70
2022-08-20T01:45:40.540Z,11.85
2022-08-20T01:48:08.199Z,13.85
2022-08-20T01:50:39.056Z,15.20
2022-08-20T01:53:22.888Z,10.95
2022-08-20T01:55:49.580Z,12.45
2022-08-20T01:58:16.565Z,10.05
2022-08-20T02:00:43.295Z,14.38
2022-08-20T02:03:09.975Z,10.98
2022-08-20T02:05:36.718Z,9.65
2022-08-20T02:08:04.719Z,14.30
2022-08-20T02:10:31.585Z,10.15
2022-08-20T02:13:00.477Z,11.52
2022-08-20T02:15:34.835Z,10.82
2022-08-20T02:18:11.909Z,10.18
2022-08-20T02:20:40.380Z,13.68
2022-08-20T02:23:08.452Z,11.57
2022-08-20T02:25:37.479Z,11.40
2022-08-20T02:28:07.381Z,10.45
2022-08-20T02:30:38.214Z,9.95
2022-08-20T02:33:09.152Z,12.75
2022-08-20T02:35:37.484Z,11.00
2022-08-20T02:38:04.667Z,8.25
2022-08-20T02:40:31.965Z,15.68
2022-08-20T02:42:59.922Z,12.13
2022-08-20T02:45:27.484Z,10.90
2022-08-20T02:47:56.653Z,9.65
2022-08-20T02:50:25.948Z,7.88
2022-08-20T02:52:52.594Z,10.07
2022-08-20T02:55:26.928Z,8.35
2022-08-20T02:57:59.853Z,9.63
2022-08-20T03:00:32.205Z,12.27
2022-08-20T03:03:10.330Z,11.05
2022-08-20T03:05:40.021Z,11.20
2022-08-20T03:08:09.532Z,16.10
2022-08-20T03:10:38.018Z,9.77
2022-08-20T03:13:06.712Z,12.15
2022-08-20T03:15:34.401Z,8.52
2022-08-20T03:18:01.285Z,7.35
2022-08-20T03:20:28.927Z,7.72
2022-08-20T03:22:55.976Z,11.98
2022-08-20T03:25:23.427Z,12.40
2022-08-20T03:27:54.386Z,8.65
2022-08-20T03:30:22.827Z,8.43
2022-08-20T03:32:49.488Z,12.05
2022-08-20T03:35:17.542Z,13.13
2022-08-20T03:37:48.284Z,11.52
2022-08-20T03:40:22.768Z,7.90
2022-08-20T03:42:50.356Z,8.38
2022-08-20T03:45:20.350Z,8.30
2022-08-20T03:47:48.193Z,10.48
2022-08-20T03:50:23.535Z,9.18
2022-08-20T03:52:52.172Z,11.52
2022-08-20T03:55:19.991Z,10.02
2022-08-20T03:57:52.785Z,9.93
2022-08-20T04:00:42.115Z,12.25
2022-08-20T04:03:09.431Z,13.02
2022-08-20T04:05:40.419Z,10.95
2022-08-20T04:08:14.643Z,12.20
2022-08-20T04:10:41.636Z,11.13
2022-08-20T04:13:09.033Z,13.57
2022-08-20T04:15:37.313Z,10.52
2022-08-20T04:18:07.767Z,9.90
2022-08-20T04:20:36.199Z,10.15
2022-08-20T04:23:03.696Z,11.00
2022-08-20T04:25:35.903Z,10.70
2022-08-20T04:28:05.448Z,10.25
2022-08-20T04:30:33.265Z,11.98
2022-08-20T04:33:00.595Z,13.20
2022-08-20T04:35:28.547Z,11.40
2022-08-20T04:38:04.423Z,15.63
2022-08-20T04:40:49.948Z,13.60
2022-08-20T04:43:16.584Z,15.18
2022-08-20T04:45:44.707Z,10.88
2022-08-20T04:48:15.047Z,19.52
2022-08-20T04:50:43.828Z,9.38
2022-08-20T04:53:12.805Z,14.98
2022-08-20T04:55:42.900Z,11.82
2022-08-20T04:58:12.822Z,12.43
2022-08-20T05:00:39.560Z,13.30
2022-08-20T05:03:07.080Z,10.00
2022-08-20T05:05:35.155Z,13.93
2022-08-20T05:08:02.555Z,10.85
2022-08-20T05:10:30.010Z,14.43
2022-08-20T05:12:57.367Z,10.65
2022-08-20T05:15:26.224Z,12.52
2022-08-20T05:18:00.527Z,13.02
2022-08-20T05:20:31.134Z,13.00
2022-08-20T05:22:59.192Z,11.52
2022-08-20T05:25:31.715Z,12.20
2022-08-20T05:28:05.986Z,15.45
2022-08-20T05:30:34.289Z,13.77
2022-08-20T05:33:03.386Z,14.15
2022-08-20T05:35:34.358Z,14.65
2022-08-20T05:38:02.128Z,16.00
2022-08-20T05:40:28.812Z,13.45
2022-08-20T05:42:55.426Z,19.65
2022-08-20T05:45:22.162Z,14.57
2022-08-20T05:47:49.469Z,14.77
2022-08-20T05:50:23.630Z,13.88
2022-08-20T05:52:50.658Z,14.73
2022-08-20T05:55:17.292Z,14.45
2022-08-20T05:57:45.646Z,16.50
2022-08-20T06:00:14.341Z,17.25
2022-08-20T06:03:00.190Z,14.48
2022-08-20T06:05:27.439Z,15.88
2022-08-20T06:07:54.846Z,16.50
2022-08-20T06:10:34.597Z,18.30
2022-08-20T06:13:02.821Z,19.20
2022-08-20T06:15:30.850Z,17.83
2022-08-20T06:17:58.579Z,17.13
2022-08-20T06:20:26.009Z,13.90
2022-08-20T06:22:52.667Z,15.18
2022-08-20T06:25:19.715Z,17.63
2022-08-20T06:27:46.415Z,13.70
2022-08-20T06:30:15.197Z,17.83
2022-08-20T06:32:41.896Z,19.27
2022-08-20T06:35:10.407Z,13.90
2022-08-20T06:37:41.471Z,16.55
2022-08-20T06:40:14.711Z,18.00
2022-08-20T06:42:48.179Z,17.17
2022-08-20T06:45:19.826Z,16.05
2022-08-20T06:47:47.609Z,17.20
2022-08-20T06:50:18.663Z,20.27
2022-08-20T06:52:52.461Z,13.25
2022-08-20T06:55:30.477Z,14.15
2022-08-20T06:58:05.284Z,13.45
2022-08-20T07:00:33.485Z,13.05
2022-08-20T07:03:01.109Z,11.98
2022-08-20T07:05:29.555Z,11.73
2022-08-20T07:07:56.204Z,10.27
2022-08-20T07:10:30.147Z,11.68
2022-08-20T07:12:59.164Z,12.85
2022-08-20T07:15:26.852Z,10.70
2022-08-20T07:18:01.192Z,9.32
2022-08-20T07:20:29.471Z,8.55
2022-08-20T07:22:56.237Z,6.63
2022-08-20T07:25:23.848Z,7.53
2022-08-20T07:27:51.362Z,8.57
2022-08-20T07:30:56.859Z,6.90
2022-08-20T07:33:25.741Z,6.40
2022-08-20T07:35:56.313Z,6.82
2022-08-20T07:38:25.208Z,5.57
2022-08-20T07:40:53.956Z,5.50
2022-08-20T07:43:23.227Z,6.72
2022-08-20T07:45:57.080Z,5.40
2022-08-20T07:48:27.910Z,3.88
2022-08-20T07:51:00.950Z,4.70
2022-08-20T07:53:30.227Z,4.25
2022-08-20T07:56:00.945Z,3.85
2022-08-20T07:58:29.623Z,5.85
2022-08-20T08:01:00.752Z,3.22
2022-08-20T08:03:37.651Z,4.28
2022-08-20T08:06:28.301Z,7.32
2022-08-20T08:09:02.455Z,3.97
2022-08-20T08:11:29.731Z,6.22
2022-08-20T08:13:56.440Z,4.40
2022-08-20T08:16:23.104Z,7.03
2022-08-20T08:18:56.424Z,3.45
2022-08-20T08:21:23.571Z,2.83
2022-08-20T08:23:50.445Z,2.60
2022-08-20T08:26:19.079Z,7.30
2022-08-20T08:28:46.427Z,4.10
2022-08-20T08:31:13.325Z,3.00
2022-08-20T08:33:40.575Z,4.93
2022-08-20T08:36:16.929Z,5.95
2022-08-20T08:38:45.487Z,4.13
2022-08-20T08:41:33.963Z,4.40
2022-08-20T08:44:12.880Z,5.22
2022-08-20T08:46:42.644Z,3.13
2022-08-20T08:49:13.952Z,4.82
2022-08-20T08:51:52.433Z,7.28
2022-08-20T08:54:22.330Z,3.50
2022-08-20T08:56:49.732Z,2.17
2022-08-20T08:59:17.307Z,3.55
2022-08-20T09:01:56.861Z,3.58
2022-08-20T09:04:37.356Z,7.30
2022-08-20T09:07:08.557Z,9.63
2022-08-20T09:09:38.563Z,5.75
2022-08-20T09:12:08.704Z,3.35
2022-08-20T09:14:36.132Z,3.47
2022-08-20T09:17:03.555Z,5.25
2022-08-20T09:19:30.400Z,3.78
2022-08-20T09:21:57.321Z,4.38
2022-08-20T09:24:24.781Z,5.25
2022-08-20T09:26:51.376Z,5.45
2022-08-20T09:29:18.013Z,4.13
2022-08-20T09:31:44.595Z,4.40
2022-08-20T09:34:13.147Z,2.80
2022-08-20T09:36:39.756Z,5.15
2022-08-20T09:39:06.367Z,8.20
2022-08-20T09:41:33.827Z,3.22
2022-08-20T09:44:01.765Z,2.05
2022-08-20T09:46:28.366Z,4.80
2022-08-20T09:48:57.071Z,7.68
2022-08-20T09:51:23.784Z,3.95
2022-08-20T09:53:50.632Z,2.38
2022-08-20T09:56:17.805Z,5.78
2022-08-20T09:58:50.572Z,4.80
2022-08-20T10:01:18.916Z,6.95
2022-08-20T10:03:50.804Z,4.63
2022-08-20T10:06:20.067Z,2.78
2022-08-20T10:08:47.348Z,4.75
2022-08-20T10:11:14.111Z,12.93
2022-08-20T10:13:40.956Z,7.43
2022-08-20T10:16:07.648Z,8.77
2022-08-20T10:18:36.033Z,6.10
2022-08-20T10:21:03.422Z,7.47
2022-08-20T10:23:30.616Z,5.57
2022-08-20T10:25:57.262Z,7.95
2022-08-20T10:28:23.864Z,6.53
2022-08-20T10:30:50.477Z,5.65
2022-08-20T10:33:17.218Z,2.67
2022-08-20T10:35:43.822Z,2.53
2022-08-20T10:38:10.401Z,4.20
2022-08-20T10:40:36.999Z,6.50
2022-08-20T10:43:03.838Z,5.30
2022-08-20T10:45:30.440Z,3.28
2022-08-20T10:48:00.146Z,3.40
2022-08-20T10:50:30.399Z,4.38
2022-08-20T10:52:58.031Z,7.05
2022-08-20T10:55:24.873Z,4.20
2022-08-20T10:57:51.570Z,3.30
2022-08-20T11:00:19.554Z,1.98
2022-08-20T11:02:46.440Z,4.13
2022-08-20T11:05:13.287Z,5.75
2022-08-20T11:07:59.713Z,3.10
2022-08-20T11:10:29.114Z,2.17
2022-08-20T11:12:55.874Z,1.52
2022-08-20T11:15:22.724Z,2.72
2022-08-20T11:17:49.355Z,1.90
2022-08-20T11:20:19.177Z,2.50
2022-08-20T11:22:46.475Z,1.55
2022-08-20T11:25:13.893Z,6.60
2022-08-20T11:27:44.213Z,2.92
2022-08-20T11:30:14.837Z,3.75
2022-08-20T11:32:41.890Z,1.65
2022-08-20T11:35:38.421Z,4.07
2022-08-20T11:37:57.201Z,1.85
2022-08-20T11:40:24.686Z,2.85
2022-08-20T11:43:13.574Z,4.00
2022-08-20T11:45:38.336Z,5.50
2022-08-20T11:48:05.472Z,1.77
2022-08-20T11:50:32.343Z,2.83
2022-08-20T11:52:59.399Z,2.65
2022-08-20T11:55:30.127Z,3.28
2022-08-20T11:57:57.028Z,0.93
2022-08-20T12:00:33.572Z,1.17
2022-08-20T12:03:08.866Z,0.80
2022-08-20T12:05:38.188Z,2.08
2022-08-20T12:08:05.087Z,3.67
2022-08-20T12:10:32.426Z,2.42
2022-08-20T12:12:59.248Z,4.57
2022-08-20T12:15:27.444Z,1.80
2022-08-20T12:17:54.574Z,0.98
2022-08-20T12:20:22.287Z,2.50
2022-08-20T12:22:49.020Z,1.13
2022-08-20T12:25:15.705Z,0.95
2022-08-20T12:27:42.571Z,2.33
2022-08-20T12:30:15.572Z,3.97
2022-08-20T12:32:42.551Z,2.03
2022-08-20T12:35:11.339Z,1.67
2022-08-20T12:37:38.077Z,2.33
2022-08-20T12:40:08.234Z,2.72
2022-08-20T12:42:34.939Z,3.58
2022-08-20T12:45:02.005Z,1.75
2022-08-20T12:47:32.183Z,3.03
2022-08-20T12:50:07.527Z,2.45
2022-08-20T12:52:34.824Z,2.75
2022-08-20T12:55:02.412Z,2.10
2022-08-20T12:57:43.932Z,2.42
2022-08-20T13:00:14.312Z,4.25
2022-08-20T13:02:41.276Z,2.92
2022-08-20T13:05:12.717Z,5.95
2022-08-20T13:07:40.271Z,1.58
2022-08-20T13:10:09.652Z,1.55
2022-08-20T13:12:36.559Z,2.13
2022-08-20T13:15:04.414Z,2.05
2022-08-20T13:17:38.703Z,1.38
2022-08-20T13:20:10.192Z,0.82
2022-08-20T13:22:38.629Z,2.92
2022-08-20T13:25:06.282Z,3.38
2022-08-20T13:27:32.885Z,1.20
2022-08-20T13:29:59.533Z,4.80
2022-08-20T13:32:26.714Z,1.92
2022-08-20T13:34:53.688Z,3.88
2022-08-20T13:37:27.599Z,2.22
2022-08-20T13:39:55.978Z,0.77
2022-08-20T13:42:22.756Z,2.20
2022-08-20T13:44:49.531Z,4.50
2022-08-20T13:47:25.908Z,4.95
2022-08-20T13:50:01.883Z,2.22
2022-08-20T13:52:28.879Z,1.25
2022-08-20T13:54:55.520Z,3.30
2022-08-20T13:57:24.808Z,1.00
2022-08-20T13:59:54.006Z,0.85
2022-08-20T14:02:21.405Z,3.25
2022-08-20T14:04:49.310Z,7.15
2022-08-20T14:07:22.101Z,1.80
2022-08-20T14:09:54.944Z,1.23
2022-08-20T14:12:24.563Z,0.95
2022-08-20T14:14:52.402Z,2.20
2022-08-20T14:17:32.660Z,2.17
2022-08-20T14:20:02.086Z,1.23
2022-08-20T14:22:29.137Z,2.00
2022-08-20T14:24:56.608Z,1.25
2022-08-20T14:27:26.535Z,1.13
2022-08-20T14:29:57.613Z,0.88
2022-08-20T14:32:24.219Z,2.45
2022-08-20T14:34:50.805Z,3.75
2022-08-20T14:37:25.095Z,2.90
2022-08-20T14:39:54.607Z,0.28
2022-08-20T14:42:23.934Z,1.70
2022-08-20T14:44:51.025Z,1.58
2022-08-20T14:47:20.387Z,1.92
2022-08-20T14:49:48.676Z,4.45
2022-08-20T14:52:17.097Z,4.22
2022-08-20T14:54:45.175Z,1.15
2022-08-20T14:57:14.621Z,3.00
2022-08-20T14:59:42.170Z,3.42
2022-08-20T15:02:12.943Z,4.43
2022-08-20T15:04:41.068Z,3.80
2022-08-20T15:07:16.300Z,1.67
2022-08-20T15:09:43.309Z,4.50
2022-08-20T15:12:09.976Z,1.17
2022-08-20T15:14:39.277Z,2.03
2022-08-20T15:17:06.375Z,2.35
2022-08-20T15:19:33.110Z,1.90
2022-08-20T15:21:59.933Z,4.03
2022-08-20T15:24:26.512Z,6.40
2022-08-20T15:26:53.251Z,0.80
2022-08-20T15:29:22.834Z,1.23
2022-08-20T15:31:50.640Z,1.42
2022-08-20T15:34:18.112Z,1.10
2022-08-20T15:36:45.385Z,2.30
2022-08-20T15:39:12.198Z,2.97
2022-08-20T15:41:38.803Z,2.45
2022-08-20T15:44:05.584Z,1.17
2022-08-20T15:46:36.249Z,4.43
2022-08-20T15:49:04.347Z,2.90
2022-08-20T15:51:43.075Z,2.72
2022-08-20T15:54:24.720Z,5.60
2022-08-20T15:57:02.936Z,2.15
2022-08-20T15:59:59.985Z,2.90
2022-08-20T16:02:45.178Z,3.40
2022-08-20T16:05:33.375Z,3.33
2022-08-20T16:08:34.380Z,1.85
2022-08-20T16:11:05.942Z,1.73
2022-08-20T16:13:49.171Z,0.80
2022-08-20T16:16:30.855Z,1.45
2022-08-20T16:18:59.595Z,1.38
2022-08-20T16:21:36.812Z,3.13
2022-08-20T16:24:05.880Z,1.83
2022-08-20T16:26:32.796Z,2.30
2022-08-20T16:29:11.325Z,1.70
2022-08-20T16:32:05.911Z,1.38
2022-08-20T16:34:44.095Z,2.72
2022-08-20T16:37:22.993Z,0.60
2022-08-20T16:40:00.646Z,3.00
2022-08-20T16:42:34.843Z,2.42
2022-08-20T16:45:05.124Z,1.80
2022-08-20T16:47:35.904Z,6.03
2022-08-20T16:50:15.982Z,3.10
2022-08-20T16:52:44.979Z,2.88
2022-08-20T16:55:12.645Z,2.45
2022-08-20T16:57:39.532Z,2.65
2022-08-20T17:00:12.581Z,1.88
2022-08-20T17:03:00.908Z,3.35
2022-08-20T17:05:37.919Z,2.08
2022-08-20T17:08:07.565Z,2.95
2022-08-20T17:10:52.427Z,1.88
2022-08-20T17:13:28.194Z,2.08
2022-08-20T17:16:07.321Z,0.98
2022-08-20T17:18:37.788Z,0.85
2022-08-20T17:21:16.586Z,2.10
2022-08-20T17:23:55.933Z,2.08
2022-08-20T17:26:40.361Z,1.55
2022-08-20T17:29:15.415Z,2.47
2022-08-20T17:31:45.576Z,3.35
2022-08-20T17:34:22.683Z,1.55
2022-08-20T17:36:58.444Z,2.45
2022-08-20T17:39:28.848Z,1.25
2022-08-20T17:42:09.083Z,4.53
2022-08-20T17:44:43.847Z,1.50
2022-08-20T17:47:16.242Z,2.58
2022-08-20T17:50:02.829Z,1.27
2022-08-20T17:52:47.005Z,0.82
2022-08-20T17:55:13.918Z,0.95
2022-08-20T17:57:44.084Z,2.92
2022-08-20T18:00:15.780Z,4.57
2022-08-20T18:02:43.489Z,2.17
2022-08-20T18:05:17.745Z,2.03
2022-08-20T18:07:59.588Z,6.07
2022-08-20T18:10:27.242Z,2.85
2022-08-20T18:13:28.843Z,2.47
2022-08-20T18:15:57.760Z,1.88
2022-08-20T18:18:56.947Z,2.10
2022-08-20T18:21:54.733Z,2.63
2022-08-20T18:24:48.986Z,2.20
2022-08-20T18:27:21.172Z,0.88
2022-08-20T18:30:01.203Z,1.75
2022-08-20T18:32:35.919Z,2.05
2022-08-20T18:35:17.604Z,0.50
2022-08-20T18:37:44.312Z,3.28
2022-08-20T18:40:18.749Z,1.10
2022-08-20T18:42:46.192Z,2.38
2022-08-20T18:45:13.221Z,2.35
2022-08-20T18:47:46.814Z,5.65
2022-08-20T18:50:18.207Z,4.05
2022-08-20T18:53:05.165Z,1.42
2022-08-20T18:55:41.306Z,1.73
2022-08-20T18:58:11.527Z,1.85
2022-08-20T19:00:43.460Z,1.85
2022-08-20T19:03:14.751Z,1.25
2022-08-20T19:06:22.806Z,1.77
2022-08-20T19:08:56.656Z,0.73
2022-08-20T19:11:46.386Z,4.05
2022-08-20T19:14:40.932Z,1.80
2022-08-20T19:17:16.636Z,1.90
2022-08-20T19:19:43.699Z,1.27
2022-08-20T19:22:16.388Z,2.20
2022-08-20T19:24:44.310Z,1.13
2022-08-20T19:27:12.558Z,1.52
2022-08-20T19:29:50.307Z,4.22
2022-08-20T19:32:27.699Z,1.40
2022-08-20T19:34:57.263Z,6.43
2022-08-20T19:37:38.559Z,2.83
2022-08-20T19:40:26.522Z,3.38
2022-08-20T19:42:57.958Z,2.17
2022-08-20T19:45:28.013Z,1.23
2022-08-20T19:48:06.780Z,3.13
2022-08-20T19:51:16.561Z,2.03
2022-08-20T19:53:48.248Z,2.47
2022-08-20T19:56:21.431Z,2.50
2022-08-20T19:59:15.805Z,2.38
2022-08-20T20:01:52.821Z,2.70
2022-08-20T20:04:19.637Z,3.28
2022-08-20T20:06:48.409Z,1.88
2022-08-20T20:09:25.345Z,1.48
2022-08-20T20:11:57.853Z,1.05
2022-08-20T20:14:29.970Z,1.42
2022-08-20T20:16:58.120Z,2.03
2022-08-20T20:19:27.512Z,1.85
2022-08-20T20:22:22.388Z,2.33
2022-08-20T20:25:00.209Z,2.28
2022-08-20T20:27:28.689Z,4.70
2022-08-20T20:30:11.586Z,1.70
2022-08-20T20:32:47.805Z,2.83
2022-08-20T20:35:31.120Z,3.13
2022-08-20T20:38:02.624Z,1.75
2022-08-20T20:40:43.732Z,1.08
2022-08-20T20:43:22.444Z,1.40
2022-08-20T20:46:19.713Z,2.30
2022-08-20T20:48:49.970Z,5.75
2022-08-20T20:51:24.506Z,4.22
2022-08-20T20:53:54.842Z,3.10
2022-08-20T20:56:37.338Z,2.45
2022-08-20T20:59:07.458Z,3.38
2022-08-20T21:01:48.438Z,4.28
2022-08-20T21:04:16.951Z,3.35
2022-08-20T21:06:44.050Z,2.80
2022-08-20T21:09:10.728Z,2.92
2022-08-20T21:11:37.413Z,2.70
2022-08-20T21:14:04.045Z,2.80
2022-08-20T21:16:30.695Z,2.42
2022-08-20T21:18:58.228Z,1.10
2022-08-20T21:21:24.952Z,2.30
2022-08-20T21:23:51.518Z,1.60
2022-08-20T21:26:18.604Z,1.90
2022-08-20T21:28:45.312Z,2.88
2022-08-20T21:31:12.164Z,3.90
2022-08-20T21:33:38.756Z,2.55
2022-08-20T21:36:06.258Z,5.72
2022-08-20T21:38:32.928Z,2.45
2022-08-20T21:40:59.873Z,2.92
2022-08-20T21:43:26.698Z,2.28
2022-08-20T21:45:53.672Z,6.90
2022-08-20T21:48:20.501Z,1.75
2022-08-20T21:50:47.160Z,3.40
2022-08-20T21:53:13.802Z,2.72
2022-08-20T21:55:41.043Z,3.35
2022-08-20T21:58:09.299Z,3.15
2022-08-20T22:00:57.705Z,4.18
2022-08-20T22:03:32.003Z,2.40
2022-08-20T22:06:00.097Z,4.45
2022-08-20T22:08:28.384Z,2.10
2022-08-20T22:10:57.047Z,2.05
2022-08-20T22:13:25.839Z,2.80
2022-08-20T22:15:52.612Z,3.30
2022-08-20T22:18:19.228Z,4.65
2022-08-20T22:20:45.971Z,2.08
2022-08-20T22:23:12.598Z,2.88
2022-08-20T22:25:40.424Z,2.35
2022-08-20T22:28:08.077Z,3.60
2022-08-20T22:30:35.619Z,1.55
2022-08-20T22:33:08.631Z,5.20
2022-08-20T22:35:35.440Z,2.05
2022-08-20T22:38:02.080Z,4.97
2022-08-20T22:40:28.820Z,3.30
2022-08-20T22:42:55.431Z,2.70
2022-08-20T22:45:22.283Z,2.00
2022-08-20T22:47:48.888Z,1.83
2022-08-20T22:50:17.617Z,4.10
2022-08-20T22:52:45.280Z,2.65
2022-08-20T22:55:12.192Z,2.90
2022-08-20T22:57:38.952Z,2.70
2022-08-20T23:00:10.136Z,2.60
2022-08-20T23:02:36.908Z,4.55
2022-08-20T23:05:04.273Z,4.35
2022-08-20T23:07:31.051Z,3.28
2022-08-20T23:09:57.648Z,4.57
2022-08-20T23:12:24.302Z,3.85
2022-08-20T23:14:52.525Z,2.53
2022-08-20T23:17:19.456Z,3.65
2022-08-20T23:19:48.415Z,3.17
2022-08-20T23:22:15.078Z,4.53
2022-08-20T23:24:42.018Z,4.05
2022-08-20T23:27:10.106Z,2.45
2022-08-20T23:29:36.788Z,1.75
2022-08-20T23:32:04.021Z,2.33
2022-08-20T23:34:30.636Z,4.15
2022-08-20T23:36:57.941Z,3.47
2022-08-20T23:39:26.083Z,2.88
2022-08-20T23:41:53.226Z,1.88
2022-08-20T23:44:26.614Z,1.75
2022-08-20T23:46:56.348Z,1.60
2022-08-20T23:49:22.986Z,2.20
2022-08-20T23:51:49.584Z,3.08
2022-08-20T23:54:16.187Z,2.45
2022-08-20T23:56:42.791Z,3.67
2022-08-20T23:59:09.427Z,1.70
